sensor_id;sensor_type;location;lat;lon;timestamp;pressure;altitude;pressure_sealevel;temperature;humidity
75401;BME280;63974;47.538;18.972;2023-06-14T00:00:16;99955.06;;;12.30;83.00
75401;BME280;63974;47.538;18.972;2023-06-14T00:03:19;99951.16;;;12.20;83.19
75401;BME280;63974;47.538;18.972;2023-06-14T00:06:24;99950.78;;;12.23;83.34
75401;BME280;63974;47.538;18.972;2023-06-14T00:09:27;99953.25;;;12.31;83.56
75401;BME280;63974;47.538;18.972;2023-06-14T00:12:30;99956.63;;;12.25;83.37
75401;BME280;63974;47.538;18.972;2023-06-14T00:15:34;99949.28;;;12.35;83.04
75401;BME280;63974;47.538;18.972;2023-06-14T00:18:37;99957.91;;;12.35;82.78
75401;BME280;63974;47.538;18.972;2023-06-14T00:21:40;99961.56;;;12.41;82.66
75401;BME280;63974;47.538;18.972;2023-06-14T00:24:44;99954.13;;;12.38;82.51
75401;BME280;63974;47.538;18.972;2023-06-14T00:27:46;99949.28;;;12.35;82.90
75401;BME280;63974;47.538;18.972;2023-06-14T00:30:50;99950.75;;;12.44;82.45
75401;BME280;63974;47.538;18.972;2023-06-14T00:33:53;99951.75;;;12.43;82.33
75401;BME280;63974;47.538;18.972;2023-06-14T00:36:55;99953.97;;;12.46;81.61
75401;BME280;63974;47.538;18.972;2023-06-14T00:39:58;99954.97;;;12.45;81.79
75401;BME280;63974;47.538;18.972;2023-06-14T00:43:01;99955.16;;;12.43;81.86
75401;BME280;63974;47.538;18.972;2023-06-14T00:46:04;99947.53;;;12.42;81.71
75401;BME280;63974;47.538;18.972;2023-06-14T00:49:07;99950.91;;;12.36;81.67
75401;BME280;63974;47.538;18.972;2023-06-14T00:52:10;99950.78;;;12.23;81.75
75401;BME280;63974;47.538;18.972;2023-06-14T00:55:15;99948.94;;;12.17;81.86
75401;BME280;63974;47.538;18.972;2023-06-14T00:58:19;99950.31;;;12.13;82.09
75401;BME280;63974;47.538;18.972;2023-06-14T01:01:22;99940.25;;;12.10;82.09
75401;BME280;63974;47.538;18.972;2023-06-14T01:04:26;99936.03;;;12.09;82.01
75401;BME280;63974;47.538;18.972;2023-06-14T01:07:51;99935.41;;;12.07;82.05
75401;BME280;63974;47.538;18.972;2023-06-14T01:11:20;99939.22;;;12.04;82.10
75401;BME280;63974;47.538;18.972;2023-06-14T01:14:25;99925.78;;;12.01;81.97
75401;BME280;63974;47.538;18.972;2023-06-14T01:17:30;99927.38;;;11.81;82.46
75401;BME280;63974;47.538;18.972;2023-06-14T01:20:34;99926.69;;;11.72;82.58
75401;BME280;63974;47.538;18.972;2023-06-14T01:23:41;99927.78;;;11.63;82.99
75401;BME280;63974;47.538;18.972;2023-06-14T01:26:44;99922.97;;;11.60;83.35
75401;BME280;63974;47.538;18.972;2023-06-14T01:29:49;99926.69;;;11.72;82.92
75401;BME280;63974;47.538;18.972;2023-06-14T01:32:54;99922.28;;;11.73;82.78
75401;BME280;63974;47.538;18.972;2023-06-14T01:35:59;99927.84;;;11.70;83.00
75401;BME280;63974;47.538;18.972;2023-06-14T01:39:05;99927.75;;;11.78;82.81
75401;BME280;63974;47.538;18.972;2023-06-14T01:42:09;99927.84;;;11.70;82.95
75401;BME280;63974;47.538;18.972;2023-06-14T01:45:13;99928.28;;;11.73;83.09
75401;BME280;63974;47.538;18.972;2023-06-14T01:48:17;99928.13;;;11.75;83.04
75401;BME280;63974;47.538;18.972;2023-06-14T01:51:20;99934.13;;;11.75;82.65
75401;BME280;63974;47.538;18.972;2023-06-14T01:54:23;99934.31;;;11.74;82.27
75401;BME280;63974;47.538;18.972;2023-06-14T01:57:28;99921.97;;;11.61;82.61
75401;BME280;63974;47.538;18.972;2023-06-14T02:00:31;99927.25;;;11.68;82.44
75401;BME280;63974;47.538;18.972;2023-06-14T02:03:33;99933.25;;;11.68;82.40
75401;BME280;63974;47.538;18.972;2023-06-14T02:06:36;99931.53;;;11.61;82.57
75401;BME280;63974;47.538;18.972;2023-06-14T02:09:40;99928.84;;;11.54;82.90
75401;BME280;63974;47.538;18.972;2023-06-14T02:12:43;99926.34;;;11.61;82.95
75401;BME280;63974;47.538;18.972;2023-06-14T02:15:47;99928.84;;;11.54;82.78
75401;BME280;63974;47.538;18.972;2023-06-14T02:18:53;99930.38;;;11.49;82.93
75401;BME280;63974;47.538;18.972;2023-06-14T02:21:58;99930.22;;;11.50;82.92
75401;BME280;63974;47.538;18.972;2023-06-14T02:25:02;99933.19;;;11.47;82.85
75401;BME280;63974;47.538;18.972;2023-06-14T02:28:05;99945.91;;;11.42;83.06
75401;BME280;63974;47.538;18.972;2023-06-14T02:31:08;99936.56;;;11.48;82.56
75401;BME280;63974;47.538;18.972;2023-06-14T02:34:11;99942.16;;;11.45;82.55
75401;BME280;63974;47.538;18.972;2023-06-14T02:37:14;99946.19;;;11.47;82.46
75401;BME280;63974;47.538;18.972;2023-06-14T02:40:17;99942.34;;;11.43;82.42
75401;BME280;63974;47.538;18.972;2023-06-14T02:43:20;99942.69;;;11.40;82.49
75401;BME280;63974;47.538;18.972;2023-06-14T02:46:23;99939.84;;;11.35;82.68
75401;BME280;63974;47.538;18.972;2023-06-14T02:49:26;99939.03;;;11.35;82.62
75401;BME280;63974;47.538;18.972;2023-06-14T02:52:29;99941.00;;;11.33;82.65
75401;BME280;63974;47.538;18.972;2023-06-14T02:55:32;99942.72;;;11.26;82.99
75401;BME280;63974;47.538;18.972;2023-06-14T02:58:38;99938.63;;;11.17;83.52
75401;BME280;63974;47.538;18.972;2023-06-14T03:01:42;99934.38;;;11.30;83.06
75401;BME280;63974;47.538;18.972;2023-06-14T03:04:48;99947.44;;;11.37;82.50
75401;BME280;63974;47.538;18.972;2023-06-14T03:07:53;99939.84;;;11.35;82.54
75401;BME280;63974;47.538;18.972;2023-06-14T03:10:56;99938.41;;;11.33;82.47
75401;BME280;63974;47.538;18.972;2023-06-14T03:14:01;99944.25;;;11.20;82.47
75401;BME280;63974;47.538;18.972;2023-06-14T03:17:07;99947.47;;;11.22;82.42
75401;BME280;63974;47.538;18.972;2023-06-14T03:20:14;99950.94;;;11.29;81.95
75401;BME280;63974;47.538;18.972;2023-06-14T03:23:17;99953.47;;;11.37;81.60
75401;BME280;63974;47.538;18.972;2023-06-14T03:26:21;99953.53;;;11.44;81.78
75401;BME280;63974;47.538;18.972;2023-06-14T03:29:27;99957.81;;;11.51;81.50
75401;BME280;63974;47.538;18.972;2023-06-14T03:32:30;99963.84;;;11.52;81.79
75401;BME280;63974;47.538;18.972;2023-06-14T03:35:36;99959.00;;;11.63;81.14
75401;BME280;63974;47.538;18.972;2023-06-14T03:38:39;99956.66;;;11.68;80.85
75401;BME280;63974;47.538;18.972;2023-06-14T03:41:43;99960.13;;;11.75;81.14
75401;BME280;63974;47.538;18.972;2023-06-14T03:44:47;99953.69;;;11.71;81.22
75401;BME280;63974;47.538;18.972;2023-06-14T03:47:51;99964.78;;;11.80;81.30
75401;BME280;63974;47.538;18.972;2023-06-14T03:50:55;99956.97;;;11.80;80.36
75401;BME280;63974;47.538;18.972;2023-06-14T03:54:03;99967.13;;;11.96;80.80
75401;BME280;63974;47.538;18.972;2023-06-14T03:57:10;99974.50;;;12.13;80.62
75401;BME280;63974;47.538;18.972;2023-06-14T04:00:13;99975.63;;;12.25;81.02
75401;BME280;63974;47.538;18.972;2023-06-14T04:03:16;99978.59;;;12.43;81.22
75401;BME280;63974;47.538;18.972;2023-06-14T04:06:19;99977.00;;;12.42;80.66
75401;BME280;63974;47.538;18.972;2023-06-14T04:09:23;99983.56;;;12.38;82.09
75401;BME280;63974;47.538;18.972;2023-06-14T04:12:27;99976.63;;;12.45;80.58
75401;BME280;63974;47.538;18.972;2023-06-14T04:15:29;99979.50;;;12.57;79.69
75401;BME280;63974;47.538;18.972;2023-06-14T04:18:34;99984.19;;;12.68;80.17
75401;BME280;63974;47.538;18.972;2023-06-14T04:21:37;99987.72;;;12.81;79.94
75401;BME280;63974;47.538;18.972;2023-06-14T04:24:40;99988.69;;;12.80;79.20
75401;BME280;63974;47.538;18.972;2023-06-14T04:27:46;100001.69;;;13.01;79.74
75401;BME280;63974;47.538;18.972;2023-06-14T04:30:49;99997.19;;;13.16;80.14
75401;BME280;63974;47.538;18.972;2023-06-14T04:33:54;99996.03;;;13.32;78.53
75401;BME280;63974;47.538;18.972;2023-06-14T04:36:58;99989.28;;;13.43;79.37
75401;BME280;63974;47.538;18.972;2023-06-14T04:40:11;99985.53;;;13.59;79.07
75401;BME280;63974;47.538;18.972;2023-06-14T04:43:15;99987.16;;;13.66;77.62
75401;BME280;63974;47.538;18.972;2023-06-14T04:46:21;99986.38;;;13.66;77.20
75401;BME280;63974;47.538;18.972;2023-06-14T04:49:25;99980.03;;;13.88;77.64
75401;BME280;63974;47.538;18.972;2023-06-14T04:52:29;99979.03;;;13.95;78.43
75401;BME280;63974;47.538;18.972;2023-06-14T04:55:33;99976.84;;;14.05;78.65
75401;BME280;63974;47.538;18.972;2023-06-14T04:58:40;99983.72;;;14.19;78.59
75401;BME280;63974;47.538;18.972;2023-06-14T05:01:43;99980.31;;;14.32;79.43
75401;BME280;63974;47.538;18.972;2023-06-14T05:04:53;99972.69;;;14.37;78.82
75401;BME280;63974;47.538;18.972;2023-06-14T05:07:56;99982.31;;;14.56;78.20
75401;BME280;63974;47.538;18.972;2023-06-14T05:11:00;99971.88;;;14.62;76.78
75401;BME280;63974;47.538;18.972;2023-06-14T05:14:03;99983.13;;;14.76;76.21
75401;BME280;63974;47.538;18.972;2023-06-14T05:17:06;99986.13;;;14.86;76.45
75401;BME280;63974;47.538;18.972;2023-06-14T05:20:09;99982.91;;;14.97;76.39
75401;BME280;63974;47.538;18.972;2023-06-14T05:23:12;99983.66;;;15.10;75.38
75401;BME280;63974;47.538;18.972;2023-06-14T05:26:18;99988.69;;;15.18;75.62
75401;BME280;63974;47.538;18.972;2023-06-14T05:29:21;99980.22;;;15.36;75.48
75401;BME280;63974;47.538;18.972;2023-06-14T05:32:24;99980.78;;;15.44;75.51
75401;BME280;63974;47.538;18.972;2023-06-14T05:35:27;99982.16;;;15.53;75.01
75401;BME280;63974;47.538;18.972;2023-06-14T05:38:29;99979.25;;;15.68;74.27
75401;BME280;63974;47.538;18.972;2023-06-14T05:41:32;99978.44;;;15.73;74.22
75401;BME280;63974;47.538;18.972;2023-06-14T05:44:35;99983.56;;;15.93;74.75
75401;BME280;63974;47.538;18.972;2023-06-14T05:47:38;99991.53;;;16.04;73.28
75401;BME280;63974;47.538;18.972;2023-06-14T05:50:41;99990.88;;;16.15;72.80
75401;BME280;63974;47.538;18.972;2023-06-14T05:53:47;99985.81;;;16.20;73.14
75401;BME280;63974;47.538;18.972;2023-06-14T05:56:50;99986.72;;;16.32;71.92
75401;BME280;63974;47.538;18.972;2023-06-14T05:59:53;99990.47;;;16.49;69.89
75401;BME280;63974;47.538;18.972;2023-06-14T06:02:56;100004.84;;;16.65;70.22
75401;BME280;63974;47.538;18.972;2023-06-14T06:06:00;99994.25;;;16.78;70.71
75401;BME280;63974;47.538;18.972;2023-06-14T06:09:03;99997.91;;;16.95;69.56
75401;BME280;63974;47.538;18.972;2023-06-14T06:12:07;100009.16;;;17.02;68.40
75401;BME280;63974;47.538;18.972;2023-06-14T06:15:10;100003.56;;;17.16;68.15
75401;BME280;63974;47.538;18.972;2023-06-14T06:18:15;99994.16;;;17.27;67.87
75401;BME280;63974;47.538;18.972;2023-06-14T06:21:18;99996.59;;;17.46;67.40
75401;BME280;63974;47.538;18.972;2023-06-14T06:24:20;100007.75;;;17.60;65.02
75401;BME280;63974;47.538;18.972;2023-06-14T06:27:23;100002.53;;;17.71;65.58
75401;BME280;63974;47.538;18.972;2023-06-14T06:30:26;100008.81;;;17.88;65.27
75401;BME280;63974;47.538;18.972;2023-06-14T06:33:29;100017.16;;;17.97;64.93
75401;BME280;63974;47.538;18.972;2023-06-14T06:36:32;100016.41;;;18.08;62.85
75401;BME280;63974;47.538;18.972;2023-06-14T06:39:35;100014.72;;;18.13;63.75
75401;BME280;63974;47.538;18.972;2023-06-14T06:42:37;100022.47;;;18.37;62.58
75401;BME280;63974;47.538;18.972;2023-06-14T06:45:41;100021.69;;;18.48;61.05
75401;BME280;63974;47.538;18.972;2023-06-14T06:48:43;100024.78;;;18.57;62.51
75401;BME280;63974;47.538;18.972;2023-06-14T06:52:02;100022.19;;;18.68;60.28
75401;BME280;63974;47.538;18.972;2023-06-14T06:55:06;100028.94;;;18.87;58.91
75401;BME280;63974;47.538;18.972;2023-06-14T06:58:09;100031.69;;;19.04;58.58
75401;BME280;63974;47.538;18.972;2023-06-14T07:01:12;100033.63;;;19.08;58.66
75401;BME280;63974;47.538;18.972;2023-06-14T07:04:15;100036.28;;;19.20;57.21
75401;BME280;63974;47.538;18.972;2023-06-14T07:07:18;100045.44;;;19.29;59.00
75401;BME280;63974;47.538;18.972;2023-06-14T07:10:21;100042.56;;;19.42;57.50
75401;BME280;63974;47.538;18.972;2023-06-14T07:13:24;100035.88;;;19.62;56.50
75401;BME280;63974;47.538;18.972;2023-06-14T07:16:27;100041.69;;;19.64;57.62
75401;BME280;63974;47.538;18.972;2023-06-14T07:19:30;100038.81;;;19.77;57.87
75401;BME280;63974;47.538;18.972;2023-06-14T07:22:34;100040.31;;;19.73;59.66
75401;BME280;63974;47.538;18.972;2023-06-14T07:25:36;100037.03;;;19.94;59.19
75401;BME280;63974;47.538;18.972;2023-06-14T07:28:39;100034.00;;;20.14;57.72
75401;BME280;63974;47.538;18.972;2023-06-14T07:31:42;100030.66;;;20.18;57.95
75401;BME280;63974;47.538;18.972;2023-06-14T07:34:45;100037.72;;;20.29;58.66
75401;BME280;63974;47.538;18.972;2023-06-14T07:37:48;100027.34;;;20.39;57.83
75401;BME280;63974;47.538;18.972;2023-06-14T07:40:52;100031.66;;;20.45;58.91
75401;BME280;63974;47.538;18.972;2023-06-14T07:43:56;100032.47;;;20.62;55.90
75401;BME280;63974;47.538;18.972;2023-06-14T07:46:59;100031.84;;;20.71;55.30
75401;BME280;63974;47.538;18.972;2023-06-14T07:50:02;100035.28;;;20.88;55.71
75401;BME280;63974;47.538;18.972;2023-06-14T07:53:07;100030.72;;;21.00;54.24
75401;BME280;63974;47.538;18.972;2023-06-14T07:56:10;100021.91;;;21.11;52.49
75401;BME280;63974;47.538;18.972;2023-06-14T07:59:13;100028.28;;;21.15;51.21
75401;BME280;63974;47.538;18.972;2023-06-14T08:02:16;100034.41;;;21.37;52.34
75401;BME280;63974;47.538;18.972;2023-06-14T08:05:18;100034.94;;;21.39;51.33
75401;BME280;63974;47.538;18.972;2023-06-14T08:08:21;100038.59;;;21.55;47.34
75401;BME280;63974;47.538;18.972;2023-06-14T08:11:24;100038.25;;;21.68;45.80
75401;BME280;63974;47.538;18.972;2023-06-14T08:14:27;100040.38;;;21.71;48.84
75401;BME280;63974;47.538;18.972;2023-06-14T08:17:31;100039.34;;;21.93;45.54
75401;BME280;63974;47.538;18.972;2023-06-14T08:20:34;100044.38;;;21.95;40.30
75401;BME280;63974;47.538;18.972;2023-06-14T08:23:37;100047.94;;;22.05;42.59
75401;BME280;63974;47.538;18.972;2023-06-14T08:26:40;100041.78;;;22.00;42.19
75401;BME280;63974;47.538;18.972;2023-06-14T08:29:43;100046.63;;;22.08;42.36
75401;BME280;63974;47.538;18.972;2023-06-14T08:32:46;100041.53;;;22.28;38.26
75401;BME280;63974;47.538;18.972;2023-06-14T08:35:55;100038.81;;;22.44;36.80
75401;BME280;63974;47.538;18.972;2023-06-14T08:38:57;100031.81;;;22.60;37.00
75401;BME280;63974;47.538;18.972;2023-06-14T08:42:01;100040.22;;;22.52;34.44
75401;BME280;63974;47.538;18.972;2023-06-14T08:45:05;100034.41;;;22.55;35.46
75401;BME280;63974;47.538;18.972;2023-06-14T08:48:08;100041.75;;;22.21;35.16
75401;BME280;63974;47.538;18.972;2023-06-14T08:51:12;100037.34;;;22.58;35.02
75401;BME280;63974;47.538;18.972;2023-06-14T08:54:16;100045.88;;;22.96;38.95
75401;BME280;63974;47.538;18.972;2023-06-14T08:57:23;100029.38;;;22.89;38.95
75401;BME280;63974;47.538;18.972;2023-06-14T09:00:27;100041.09;;;22.98;36.81
75401;BME280;63974;47.538;18.972;2023-06-14T09:03:31;100056.47;;;23.01;37.03
75401;BME280;63974;47.538;18.972;2023-06-14T09:06:36;100049.81;;;22.94;35.45
75401;BME280;63974;47.538;18.972;2023-06-14T09:09:40;100046.41;;;22.98;36.54
75401;BME280;63974;47.538;18.972;2023-06-14T09:13:04;100050.91;;;23.34;36.27
75401;BME280;63974;47.538;18.972;2023-06-14T09:16:07;100051.13;;;23.28;36.89
75401;BME280;63974;47.538;18.972;2023-06-14T09:19:25;100041.66;;;23.42;35.67
75401;BME280;63974;47.538;18.972;2023-06-14T09:22:29;100045.25;;;23.77;35.88
75401;BME280;63974;47.538;18.972;2023-06-14T09:25:42;100045.00;;;23.74;36.29
75401;BME280;63974;47.538;18.972;2023-06-14T09:28:48;100043.63;;;23.71;37.40
75401;BME280;63974;47.538;18.972;2023-06-14T09:31:51;100039.13;;;23.72;35.67
75401;BME280;63974;47.538;18.972;2023-06-14T09:34:54;100041.53;;;22.86;37.14
75401;BME280;63974;47.538;18.972;2023-06-14T09:37:57;100040.00;;;23.26;36.88
75401;BME280;63974;47.538;18.972;2023-06-14T09:41:03;100034.53;;;23.42;38.57
75401;BME280;63974;47.538;18.972;2023-06-14T09:44:10;100028.56;;;23.82;38.71
75401;BME280;63974;47.538;18.972;2023-06-14T09:47:23;100037.38;;;23.97;39.28
75401;BME280;63974;47.538;18.972;2023-06-14T09:50:26;100031.34;;;24.27;38.08
75401;BME280;63974;47.538;18.972;2023-06-14T09:53:30;100036.69;;;24.57;37.99
75401;BME280;63974;47.538;18.972;2023-06-14T09:56:37;100033.25;;;24.61;36.90
75401;BME280;63974;47.538;18.972;2023-06-14T09:59:42;100029.00;;;24.80;35.14
75401;BME280;63974;47.538;18.972;2023-06-14T10:02:49;100028.72;;;24.77;35.06
75401;BME280;63974;47.538;18.972;2023-06-14T10:05:58;100027.34;;;25.14;35.60
75401;BME280;63974;47.538;18.972;2023-06-14T10:09:09;100029.94;;;25.44;33.87
75401;BME280;63974;47.538;18.972;2023-06-14T10:12:12;100022.31;;;25.03;34.88
75401;BME280;63974;47.538;18.972;2023-06-14T10:15:52;100022.59;;;25.06;36.73
75401;BME280;63974;47.538;18.972;2023-06-14T10:19:13;100024.41;;;25.16;34.54
75401;BME280;63974;47.538;18.972;2023-06-14T10:22:26;100018.13;;;24.82;36.63
75401;BME280;63974;47.538;18.972;2023-06-14T10:25:31;100017.31;;;24.56;35.64
75401;BME280;63974;47.538;18.972;2023-06-14T10:28:38;100020.50;;;24.78;34.67
75401;BME280;63974;47.538;18.972;2023-06-14T10:31:46;100021.81;;;24.56;34.15
75401;BME280;63974;47.538;18.972;2023-06-14T10:35:00;100017.66;;;23.68;36.72
75401;BME280;63974;47.538;18.972;2023-06-14T10:38:08;100011.53;;;23.63;37.29
75401;BME280;63974;47.538;18.972;2023-06-14T10:41:11;100015.13;;;24.13;37.20
75401;BME280;63974;47.538;18.972;2023-06-14T10:47:21;100004.28;;;24.25;35.45
75401;BME280;63974;47.538;18.972;2023-06-14T10:50:29;100002.97;;;24.52;36.26
75401;BME280;63974;47.538;18.972;2023-06-14T10:53:42;100010.44;;;24.55;34.59
75401;BME280;63974;47.538;18.972;2023-06-14T10:56:49;100003.25;;;24.76;34.93
75401;BME280;63974;47.538;18.972;2023-06-14T10:59:53;100003.75;;;24.88;36.11
75401;BME280;63974;47.538;18.972;2023-06-14T11:06:28;100010.59;;;25.14;33.04
75401;BME280;63974;47.538;18.972;2023-06-14T11:10:15;100015.63;;;25.30;33.55
75401;BME280;63974;47.538;18.972;2023-06-14T11:13:25;100009.84;;;24.23;33.26
75401;BME280;63974;47.538;18.972;2023-06-14T11:16:28;100014.09;;;24.44;33.53
75401;BME280;63974;47.538;18.972;2023-06-14T11:19:31;100007.47;;;24.87;33.77
75401;BME280;63974;47.538;18.972;2023-06-14T11:22:41;100005.31;;;25.09;33.04
75401;BME280;63974;47.538;18.972;2023-06-14T11:25:50;100002.03;;;25.41;33.64
75401;BME280;63974;47.538;18.972;2023-06-14T11:28:57;100007.63;;;25.35;32.69
75401;BME280;63974;47.538;18.972;2023-06-14T11:32:01;99999.81;;;25.68;32.88
75401;BME280;63974;47.538;18.972;2023-06-14T11:35:05;100001.16;;;25.61;31.87
75401;BME280;63974;47.538;18.972;2023-06-14T11:38:09;99989.63;;;25.75;31.57
75401;BME280;63974;47.538;18.972;2023-06-14T11:41:12;99997.97;;;25.64;32.83
75401;BME280;63974;47.538;18.972;2023-06-14T11:44:15;99994.66;;;25.82;32.15
75401;BME280;63974;47.538;18.972;2023-06-14T11:47:18;99979.22;;;25.84;32.26
75401;BME280;63974;47.538;18.972;2023-06-14T11:50:22;99985.63;;;25.88;32.25
75401;BME280;63974;47.538;18.972;2023-06-14T11:53:25;99982.72;;;25.74;33.46
75401;BME280;63974;47.538;18.972;2023-06-14T11:56:29;99994.53;;;25.53;33.96
75401;BME280;63974;47.538;18.972;2023-06-14T11:59:38;99995.59;;;25.52;33.31
75401;BME280;63974;47.538;18.972;2023-06-14T12:02:41;99986.63;;;25.43;29.81
75401;BME280;63974;47.538;18.972;2023-06-14T12:05:44;99991.13;;;25.43;31.20
75401;BME280;63974;47.538;18.972;2023-06-14T12:08:47;99979.56;;;25.72;33.17
75401;BME280;63974;47.538;18.972;2023-06-14T12:12:00;99976.69;;;25.59;31.31
75401;BME280;63974;47.538;18.972;2023-06-14T12:15:07;99980.94;;;24.57;31.85
75401;BME280;63974;47.538;18.972;2023-06-14T12:18:10;99981.97;;;24.31;32.28
75401;BME280;63974;47.538;18.972;2023-06-14T12:21:13;99977.69;;;25.00;32.85
75401;BME280;63974;47.538;18.972;2023-06-14T12:24:16;99980.38;;;24.85;33.94
75401;BME280;63974;47.538;18.972;2023-06-14T12:27:21;99970.78;;;24.94;34.13
75401;BME280;63974;47.538;18.972;2023-06-14T12:30:26;99979.50;;;25.29;32.09
75401;BME280;63974;47.538;18.972;2023-06-14T12:33:29;99969.00;;;25.57;31.26
75401;BME280;63974;47.538;18.972;2023-06-14T12:36:32;99967.94;;;25.53;31.05
75401;BME280;63974;47.538;18.972;2023-06-14T12:39:36;99958.66;;;25.46;30.83
75401;BME280;63974;47.538;18.972;2023-06-14T12:42:42;99973.16;;;25.73;32.17
75401;BME280;63974;47.538;18.972;2023-06-14T12:45:45;99963.25;;;25.89;32.29
75401;BME280;63974;47.538;18.972;2023-06-14T12:48:48;99963.53;;;25.87;30.86
75401;BME280;63974;47.538;18.972;2023-06-14T12:51:50;99949.59;;;25.57;29.80
75401;BME280;63974;47.538;18.972;2023-06-14T12:54:53;99952.16;;;25.72;30.67
75401;BME280;63974;47.538;18.972;2023-06-14T12:57:56;99948.63;;;25.91;31.10
75401;BME280;63974;47.538;18.972;2023-06-14T13:00:58;99949.66;;;25.95;30.95
75401;BME280;63974;47.538;18.972;2023-06-14T13:04:01;99956.91;;;25.27;30.72
75401;BME280;63974;47.538;18.972;2023-06-14T13:07:05;99953.69;;;25.35;30.49
75401;BME280;63974;47.538;18.972;2023-06-14T13:10:08;99950.81;;;25.16;30.81
75401;BME280;63974;47.538;18.972;2023-06-14T13:13:11;99945.75;;;25.78;30.27
75401;BME280;63974;47.538;18.972;2023-06-14T13:16:15;99945.69;;;25.83;31.92
75401;BME280;63974;47.538;18.972;2023-06-14T13:19:17;99935.31;;;26.82;30.49
75401;BME280;63974;47.538;18.972;2023-06-14T13:22:20;99938.69;;;27.58;29.08
75401;BME280;63974;47.538;18.972;2023-06-14T13:25:23;99942.50;;;27.52;28.54
75401;BME280;63974;47.538;18.972;2023-06-14T13:28:26;99924.06;;;27.55;28.65
75401;BME280;63974;47.538;18.972;2023-06-14T13:31:29;99928.56;;;27.36;27.27
75401;BME280;63974;47.538;18.972;2023-06-14T13:34:32;99934.38;;;27.62;28.63
75401;BME280;63974;47.538;18.972;2023-06-14T13:37:34;99919.75;;;28.28;25.39
75401;BME280;63974;47.538;18.972;2023-06-14T13:40:37;99913.28;;;28.47;25.83
75401;BME280;63974;47.538;18.972;2023-06-14T13:43:40;99926.31;;;28.94;26.70
75401;BME280;63974;47.538;18.972;2023-06-14T13:46:44;99917.47;;;29.34;26.32
75401;BME280;63974;47.538;18.972;2023-06-14T13:49:47;99913.19;;;29.47;24.51
75401;BME280;63974;47.538;18.972;2023-06-14T13:52:49;99914.53;;;29.71;24.78
75401;BME280;63974;47.538;18.972;2023-06-14T13:55:52;99908.06;;;29.72;24.50
75401;BME280;63974;47.538;18.972;2023-06-14T13:58:55;99907.91;;;29.69;24.62
75401;BME280;63974;47.538;18.972;2023-06-14T14:01:58;99906.22;;;29.95;24.82
75401;BME280;63974;47.538;18.972;2023-06-14T14:05:01;99911.72;;;29.98;25.49
75401;BME280;63974;47.538;18.972;2023-06-14T14:08:04;99918.53;;;29.60;25.81
75401;BME280;63974;47.538;18.972;2023-06-14T14:11:07;99919.84;;;29.49;26.77
75401;BME280;63974;47.538;18.972;2023-06-14T14:14:11;99926.09;;;27.82;30.19
75401;BME280;63974;47.538;18.972;2023-06-14T14:17:14;99915.34;;;28.37;28.02
75401;BME280;63974;47.538;18.972;2023-06-14T14:20:17;99921.44;;;29.23;28.07
75401;BME280;63974;47.538;18.972;2023-06-14T14:23:21;99920.25;;;28.62;27.47
75401;BME280;63974;47.538;18.972;2023-06-14T14:26:24;99912.53;;;28.28;29.11
75401;BME280;63974;47.538;18.972;2023-06-14T14:29:27;99916.44;;;29.57;27.56
75401;BME280;63974;47.538;18.972;2023-06-14T14:32:31;99910.56;;;29.91;27.27
75401;BME280;63974;47.538;18.972;2023-06-14T14:35:34;99908.38;;;29.22;28.70
75401;BME280;63974;47.538;18.972;2023-06-14T14:38:37;99909.66;;;29.73;29.10
75401;BME280;63974;47.538;18.972;2023-06-14T14:41:40;99911.50;;;30.30;27.66
75401;BME280;63974;47.538;18.972;2023-06-14T14:44:44;99916.28;;;30.63;26.72
75401;BME280;63974;47.538;18.972;2023-06-14T14:47:47;99916.19;;;29.81;27.36
75401;BME280;63974;47.538;18.972;2023-06-14T14:50:50;99923.59;;;29.62;27.10
75401;BME280;63974;47.538;18.972;2023-06-14T14:53:52;99920.44;;;30.04;26.89
75401;BME280;63974;47.538;18.972;2023-06-14T14:56:57;99921.38;;;30.21;25.44
75401;BME280;63974;47.538;18.972;2023-06-14T15:00:00;99920.06;;;29.26;26.50
75401;BME280;63974;47.538;18.972;2023-06-14T15:03:03;99919.63;;;28.65;28.29
75401;BME280;63974;47.538;18.972;2023-06-14T15:06:06;99919.31;;;28.21;27.90
75401;BME280;63974;47.538;18.972;2023-06-14T15:09:09;99910.44;;;29.38;26.67
75401;BME280;63974;47.538;18.972;2023-06-14T15:12:12;99906.78;;;30.27;26.78
75401;BME280;63974;47.538;18.972;2023-06-14T15:15:15;99903.22;;;29.96;25.20
75401;BME280;63974;47.538;18.972;2023-06-14T15:18:17;99892.34;;;30.45;25.84
75401;BME280;63974;47.538;18.972;2023-06-14T15:21:23;99901.16;;;30.37;26.00
75401;BME280;63974;47.538;18.972;2023-06-14T15:24:25;99902.66;;;29.64;26.81
75401;BME280;63974;47.538;18.972;2023-06-14T15:27:44;99897.66;;;30.06;26.15
75401;BME280;63974;47.538;18.972;2023-06-14T15:30:47;99896.44;;;29.41;26.74
75401;BME280;63974;47.538;18.972;2023-06-14T15:33:50;99904.34;;;28.06;28.71
75401;BME280;63974;47.538;18.972;2023-06-14T15:36:52;99905.59;;;27.95;27.96
75401;BME280;63974;47.538;18.972;2023-06-14T15:39:55;99896.28;;;29.24;27.41
75401;BME280;63974;47.538;18.972;2023-06-14T15:42:58;99904.03;;;27.76;30.58
75401;BME280;63974;47.538;18.972;2023-06-14T15:46:01;99900.56;;;28.26;27.53
75401;BME280;63974;47.538;18.972;2023-06-14T15:49:10;99904.75;;;29.04;27.67
75401;BME280;63974;47.538;18.972;2023-06-14T15:52:13;99905.91;;;29.12;26.80
75401;BME280;63974;47.538;18.972;2023-06-14T15:55:16;99902.88;;;28.91;27.16
75401;BME280;63974;47.538;18.972;2023-06-14T15:58:18;99903.53;;;27.74;30.97
75401;BME280;63974;47.538;18.972;2023-06-14T16:01:22;99911.69;;;26.99;31.38
75401;BME280;63974;47.538;18.972;2023-06-14T16:04:25;99906.06;;;28.16;29.46
75401;BME280;63974;47.538;18.972;2023-06-14T16:07:28;99906.88;;;28.89;28.36